createdAt,value
2023-05-19T00:02:12.841Z,71.32
2023-05-19T00:04:48.025Z,71.51
2023-05-19T00:07:29.528Z,71.60
2023-05-19T00:10:04.831Z,71.14
2023-05-19T00:12:39.103Z,71.68
2023-05-19T00:15:13.679Z,71.66
2023-05-19T00:17:46.930Z,71.69
2023-05-19T00:20:20.226Z,71.38
2023-05-19T00:22:53.392Z,71.67
2023-05-19T00:25:28.287Z,71.88
2023-05-19T00:28:02.511Z,71.87
2023-05-19T00:30:35.796Z,72.30
2023-05-19T00:33:09.058Z,72.57
2023-05-19T00:35:42.390Z,72.70
2023-05-19T00:38:15.602Z,72.56
2023-05-19T00:40:50.421Z,72.69
2023-05-19T00:43:23.954Z,73.02
2023-05-19T00:45:57.288Z,72.73
2023-05-19T00:48:30.546Z,72.90
2023-05-19T00:51:06.706Z,73.37
2023-05-19T00:53:40.139Z,73.25
2023-05-19T00:56:14.786Z,73.53
2023-05-19T00:58:48.317Z,74.03
2023-05-19T01:01:23.477Z,73.27
2023-05-19T01:03:59.294Z,73.10
2023-05-19T01:06:32.830Z,73.70
2023-05-19T01:09:06.036Z,73.83
2023-05-19T01:11:42.382Z,74.06
2023-05-19T01:14:16.690Z,74.51
2023-05-19T01:17:05.524Z,74.62
2023-05-19T01:19:57.450Z,73.96
2023-05-19T01:23:16.796Z,74.92
2023-05-19T01:26:12.900Z,74.97
2023-05-19T01:29:12.442Z,74.82
2023-05-19T01:31:49.040Z,75.25
2023-05-19T01:34:27.601Z,75.42
2023-05-19T01:37:05.784Z,75.71
2023-05-19T01:39:41.558Z,75.65
2023-05-19T01:42:16.726Z,76.30
2023-05-19T01:44:50.341Z,76.89
2023-05-19T01:47:25.784Z,76.48
2023-05-19T01:49:59.115Z,76.58
2023-05-19T01:52:33.186Z,76.06
2023-05-19T01:55:07.578Z,76.37
2023-05-19T01:57:50.671Z,76.27
2023-05-19T02:00:35.954Z,76.29
2023-05-19T02:03:31.490Z,76.58
2023-05-19T02:06:20.037Z,76.13
2023-05-19T02:09:00.515Z,76.40
2023-05-19T02:11:38.897Z,76.94
2023-05-19T02:14:20.337Z,76.76
2023-05-19T02:16:54.856Z,76.74
2023-05-19T02:19:33.077Z,76.55
2023-05-19T02:22:06.517Z,76.58
2023-05-19T02:24:41.420Z,76.78
2023-05-19T02:27:16.826Z,76.75
2023-05-19T02:29:50.161Z,76.68
2023-05-19T02:32:23.371Z,76.79
2023-05-19T02:34:58.053Z,76.88
2023-05-19T02:37:32.610Z,77.18
2023-05-19T02:40:07.121Z,77.45
2023-05-19T02:42:40.223Z,77.38
2023-05-19T02:45:13.466Z,77.44
2023-05-19T02:47:47.725Z,78.01
2023-05-19T02:50:22.621Z,77.38
2023-05-19T02:52:55.903Z,77.09
2023-05-19T02:55:29.800Z,77.49
2023-05-19T02:58:03.040Z,77.21
2023-05-19T03:00:36.249Z,77.33
2023-05-19T03:03:10.474Z,77.20
2023-05-19T03:05:46.010Z,76.97
2023-05-19T03:08:19.769Z,77.08
2023-05-19T03:10:52.968Z,77.02
2023-05-19T03:13:26.236Z,77.42
2023-05-19T03:15:59.777Z,77.63
2023-05-19T03:18:35.154Z,78.03
2023-05-19T03:21:09.740Z,77.64
2023-05-19T03:23:42.936Z,77.99
2023-05-19T03:26:16.359Z,77.79
2023-05-19T03:28:49.685Z,77.65
2023-05-19T03:31:22.907Z,77.42
2023-05-19T03:33:57.889Z,77.71
2023-05-19T03:36:33.103Z,77.19
2023-05-19T03:39:07.416Z,77.41
2023-05-19T03:41:40.615Z,77.16
2023-05-19T03:44:13.789Z,77.30
2023-05-19T03:46:47.157Z,76.83
2023-05-19T03:49:40.293Z,77.05
2023-05-19T03:52:17.457Z,76.64
2023-05-19T03:55:00.759Z,76.73
2023-05-19T03:57:34.032Z,77.35
2023-05-19T04:00:09.201Z,77.08
2023-05-19T04:02:45.440Z,76.67
2023-05-19T04:05:19.549Z,76.79
2023-05-19T04:07:54.145Z,76.15
2023-05-19T04:10:27.453Z,77.03
2023-05-19T04:13:01.313Z,77.07
2023-05-19T04:15:34.894Z,76.48
2023-05-19T04:18:08.193Z,76.22
2023-05-19T04:20:41.663Z,76.77
2023-05-19T04:23:16.192Z,76.73
2023-05-19T04:25:52.417Z,76.61
2023-05-19T04:28:25.794Z,77.13
2023-05-19T04:31:00.328Z,77.87
2023-05-19T04:33:34.000Z,78.08
2023-05-19T04:36:10.770Z,78.17
2023-05-19T04:38:47.867Z,78.02
2023-05-19T04:41:23.109Z,77.94
2023-05-19T04:43:57.588Z,77.31
2023-05-19T04:46:31.061Z,77.09
2023-05-19T04:49:04.588Z,76.77
2023-05-19T04:51:41.409Z,76.01
2023-05-19T04:54:16.695Z,73.33
2023-05-19T04:56:50.334Z,70.73
2023-05-19T04:59:24.227Z,68.24
2023-05-19T05:01:57.788Z,67.37
2023-05-19T05:04:33.678Z,65.88
2023-05-19T05:07:07.151Z,64.72
2023-05-19T05:09:41.818Z,63.34
2023-05-19T05:12:16.689Z,62.20
2023-05-19T05:14:50.333Z,60.95
2023-05-19T05:17:25.689Z,59.94
2023-05-19T05:19:59.458Z,58.92
2023-05-19T05:22:33.320Z,58.95
2023-05-19T05:25:09.740Z,58.83
2023-05-19T05:27:44.080Z,60.49
2023-05-19T05:30:17.361Z,62.13
2023-05-19T05:32:52.076Z,60.43
2023-05-19T05:35:39.379Z,60.56
2023-05-19T05:38:14.281Z,62.17
2023-05-19T05:40:49.694Z,62.58
2023-05-19T05:43:23.188Z,62.28
2023-05-19T05:46:02.164Z,61.56
2023-05-19T05:48:36.734Z,60.64
2023-05-19T05:51:11.891Z,60.36
2023-05-19T05:53:52.637Z,60.40
2023-05-19T05:56:28.700Z,59.77
2023-05-19T05:59:02.048Z,58.16
2023-05-19T06:01:35.949Z,57.00
2023-05-19T06:04:11.190Z,56.27
2023-05-19T06:06:44.433Z,55.37
2023-05-19T06:09:20.611Z,54.57
2023-05-19T06:11:55.420Z,54.44
2023-05-19T06:14:29.067Z,54.38
2023-05-19T06:17:31.591Z,55.08
2023-05-19T06:20:06.479Z,55.75
2023-05-19T06:22:39.743Z,56.75
2023-05-19T06:25:13.968Z,57.95
2023-05-19T06:27:48.666Z,57.71
2023-05-19T06:30:22.819Z,58.46
2023-05-19T06:33:05.721Z,58.14
2023-05-19T06:35:39.663Z,57.78
2023-05-19T06:38:14.090Z,57.84
2023-05-19T06:40:49.712Z,58.56
2023-05-19T06:43:25.750Z,56.94
2023-05-19T06:46:03.569Z,55.50
2023-05-19T06:48:38.440Z,54.97
2023-05-19T06:51:11.762Z,54.80
2023-05-19T06:53:46.897Z,53.64
2023-05-19T06:56:20.118Z,53.10
2023-05-19T06:58:54.681Z,52.29
2023-05-19T07:01:32.401Z,51.40
2023-05-19T07:04:06.386Z,52.33
2023-05-19T07:06:39.656Z,52.62
2023-05-19T07:09:13.975Z,52.68
2023-05-19T07:11:47.875Z,53.30
2023-05-19T07:14:22.501Z,53.56
2023-05-19T07:16:55.870Z,53.22
2023-05-19T07:19:29.319Z,52.79
2023-05-19T07:22:02.512Z,52.38
2023-05-19T07:24:35.726Z,50.41
2023-05-19T07:27:08.984Z,51.69
2023-05-19T07:29:43.576Z,51.04
2023-05-19T07:32:16.822Z,50.11
2023-05-19T07:34:49.989Z,49.23
2023-05-19T07:37:23.239Z,49.06
2023-05-19T07:39:56.413Z,50.16
2023-05-19T07:42:29.644Z,49.64
2023-05-19T07:45:04.269Z,50.27
2023-05-19T07:47:37.684Z,50.14
2023-05-19T07:50:11.271Z,50.20
2023-05-19T07:52:44.581Z,50.76
2023-05-19T07:55:19.263Z,49.48
2023-05-19T07:57:52.550Z,49.32
2023-05-19T08:00:27.544Z,48.99
2023-05-19T08:03:01.885Z,48.76
2023-05-19T08:05:36.121Z,48.32
2023-05-19T08:08:09.542Z,49.98
2023-05-19T08:10:42.743Z,48.91
2023-05-19T08:13:18.521Z,48.97
2023-05-19T08:15:54.410Z,47.91
2023-05-19T08:18:28.192Z,47.29
2023-05-19T08:21:01.457Z,46.67
2023-05-19T08:23:34.665Z,47.79
2023-05-19T08:26:07.779Z,46.97
2023-05-19T08:28:41.102Z,46.15
2023-05-19T08:31:15.736Z,46.04
2023-05-19T08:33:48.988Z,46.85
2023-05-19T08:36:23.080Z,45.38
2023-05-19T08:38:56.335Z,45.12
2023-05-19T08:41:29.576Z,45.94
2023-05-19T08:44:02.838Z,46.67
2023-05-19T08:46:37.750Z,45.22
2023-05-19T08:49:14.104Z,46.96
2023-05-19T08:51:58.605Z,46.43
2023-05-19T08:54:40.088Z,45.22
2023-05-19T08:57:14.750Z,44.77
2023-05-19T08:59:49.213Z,45.02
2023-05-19T09:02:24.486Z,47.09
2023-05-19T09:04:58.556Z,46.23
2023-05-19T09:07:34.857Z,45.68
2023-05-19T09:10:09.267Z,46.19
2023-05-19T09:12:42.569Z,44.87
2023-05-19T09:15:19.149Z,44.50
2023-05-19T09:18:07.984Z,44.12
2023-05-19T09:20:45.643Z,43.06
2023-05-19T09:23:19.435Z,44.58
2023-05-19T09:25:54.394Z,44.04
2023-05-19T09:28:29.555Z,45.21
2023-05-19T09:31:04.687Z,45.26
2023-05-19T09:33:42.856Z,44.41
2023-05-19T09:36:17.946Z,42.92
2023-05-19T09:38:51.178Z,44.33
2023-05-19T09:41:25.004Z,42.75
2023-05-19T09:43:58.132Z,43.10
2023-05-19T09:46:31.374Z,43.52
2023-05-19T09:49:11.706Z,43.44
2023-05-19T09:51:45.814Z,44.05
2023-05-19T09:54:21.483Z,42.91
2023-05-19T09:57:00.120Z,43.13
2023-05-19T09:59:34.138Z,42.84
2023-05-19T10:02:13.465Z,43.76
2023-05-19T10:04:49.800Z,42.29
2023-05-19T10:07:25.640Z,42.05
2023-05-19T10:10:00.105Z,40.71
2023-05-19T10:12:33.990Z,42.01
2023-05-19T10:15:10.626Z,41.56
2023-05-19T10:17:45.429Z,42.27
2023-05-19T10:20:20.305Z,42.99
2023-05-19T10:22:53.616Z,44.61
2023-05-19T10:25:27.007Z,44.54
2023-05-19T10:28:06.183Z,44.05
2023-05-19T10:30:42.829Z,42.66
2023-05-19T10:33:18.622Z,41.05
2023-05-19T10:36:11.060Z,39.97
2023-05-19T10:38:53.323Z,40.39
2023-05-19T10:41:38.957Z,40.68
2023-05-19T10:44:24.445Z,39.65
2023-05-19T10:46:57.950Z,39.72
2023-05-19T10:49:36.736Z,39.38
2023-05-19T10:52:23.286Z,38.48
2023-05-19T10:54:58.456Z,38.25
2023-05-19T10:57:33.339Z,39.92
2023-05-19T11:00:31.742Z,41.18
2023-05-19T11:03:15.638Z,40.60
2023-05-19T11:05:51.091Z,40.18
2023-05-19T11:08:34.399Z,40.63
2023-05-19T11:11:15.257Z,39.74
2023-05-19T11:13:49.419Z,40.27
2023-05-19T11:16:30.537Z,42.17
2023-05-19T11:19:03.717Z,40.37
2023-05-19T11:21:44.659Z,38.61
2023-05-19T11:24:36.566Z,37.50
2023-05-19T11:27:26.074Z,38.76
2023-05-19T11:30:01.911Z,38.81
2023-05-19T11:32:39.350Z,36.83
2023-05-19T11:35:12.752Z,35.85
2023-05-19T11:37:46.947Z,35.47
2023-05-19T11:40:22.998Z,36.17
2023-05-19T11:42:56.261Z,36.40
2023-05-19T11:45:32.660Z,36.42
2023-05-19T11:48:10.485Z,37.79
2023-05-19T11:50:44.661Z,39.16
2023-05-19T11:53:19.806Z,38.71
2023-05-19T11:55:53.334Z,38.00
2023-05-19T11:58:28.364Z,38.52
2023-05-19T12:01:05.344Z,37.25
2023-05-19T12:03:39.980Z,37.48
2023-05-19T12:06:17.445Z,36.85
2023-05-19T12:08:52.676Z,35.66
2023-05-19T12:11:25.938Z,35.83
2023-05-19T12:14:00.555Z,35.01
2023-05-19T12:16:36.891Z,33.87
2023-05-19T12:19:11.496Z,32.59
2023-05-19T12:21:45.211Z,33.68
2023-05-19T12:24:19.316Z,33.13
2023-05-19T12:26:52.503Z,32.74
2023-05-19T12:29:29.520Z,33.45
2023-05-19T12:32:04.082Z,33.98
2023-05-19T12:34:39.979Z,36.05
2023-05-19T12:37:13.261Z,36.63
2023-05-19T12:39:47.059Z,34.57
2023-05-19T12:42:20.708Z,34.08
2023-05-19T12:44:55.659Z,35.04
2023-05-19T12:47:34.047Z,34.31
2023-05-19T12:50:10.850Z,35.78
2023-05-19T12:52:45.803Z,36.75
2023-05-19T12:55:20.591Z,36.31
2023-05-19T12:57:58.083Z,34.90
2023-05-19T13:00:32.815Z,34.56
2023-05-19T13:03:08.611Z,34.96
2023-05-19T13:05:44.681Z,35.11
2023-05-19T13:08:20.148Z,35.39
2023-05-19T13:10:53.468Z,33.49
2023-05-19T13:13:26.663Z,33.10
2023-05-19T13:15:59.867Z,33.17
2023-05-19T13:18:32.971Z,33.66
2023-05-19T13:21:07.574Z,32.38
2023-05-19T13:23:40.703Z,32.91
2023-05-19T13:26:14.291Z,33.94
2023-05-19T13:28:47.866Z,33.20
2023-05-19T13:31:21.091Z,33.00
2023-05-19T13:33:54.374Z,34.89
2023-05-19T13:36:28.928Z,35.71
2023-05-19T13:39:02.337Z,36.08
2023-05-19T13:41:35.702Z,36.16
2023-05-19T13:44:08.882Z,34.75
2023-05-19T13:46:45.423Z,35.17
2023-05-19T13:49:19.985Z,34.92
2023-05-19T13:51:57.863Z,34.91
2023-05-19T13:54:31.177Z,35.17
2023-05-19T13:57:04.451Z,35.41
2023-05-19T13:59:48.984Z,35.64
2023-05-19T14:02:31.066Z,35.82
2023-05-19T14:05:04.847Z,35.41
2023-05-19T14:07:39.454Z,35.08
2023-05-19T14:10:12.898Z,35.54
2023-05-19T14:13:14.161Z,36.29
2023-05-19T14:15:39.373Z,35.29
2023-05-19T14:18:12.746Z,34.83
2023-05-19T14:20:46.034Z,34.52
2023-05-19T14:23:21.626Z,33.67
2023-05-19T14:25:54.903Z,34.97
2023-05-19T14:28:28.135Z,35.20
2023-05-19T14:31:01.356Z,34.04
2023-05-19T14:33:35.595Z,34.47
2023-05-19T14:36:09.538Z,34.50
2023-05-19T14:38:44.158Z,34.52
2023-05-19T14:41:17.403Z,34.29
2023-05-19T14:43:50.610Z,35.39
2023-05-19T14:46:23.828Z,35.71
2023-05-19T14:48:57.102Z,35.74
2023-05-19T14:51:30.307Z,35.18
2023-05-19T14:54:05.068Z,34.59
2023-05-19T14:56:38.199Z,34.84
2023-05-19T14:59:11.409Z,35.20
2023-05-19T15:01:44.739Z,35.61
2023-05-19T15:04:18.168Z,34.75
2023-05-19T15:07:05.766Z,34.35
2023-05-19T15:09:43.709Z,35.38
2023-05-19T15:12:16.858Z,34.73
2023-05-19T15:14:50.099Z,35.22
2023-05-19T15:17:23.374Z,35.39
2023-05-19T15:19:56.561Z,35.27
2023-05-19T15:22:29.773Z,35.27
2023-05-19T15:25:04.320Z,35.19
2023-05-19T15:27:37.532Z,34.51
2023-05-19T15:30:11.096Z,35.18
2023-05-19T15:32:44.357Z,34.54
2023-05-19T15:35:17.643Z,34.09
2023-05-19T15:37:50.833Z,33.65
2023-05-19T15:40:25.577Z,34.17
2023-05-19T15:42:58.761Z,33.92
2023-05-19T15:45:32.049Z,34.39
2023-05-19T15:48:05.753Z,35.25
2023-05-19T15:50:39.093Z,35.10
2023-05-19T15:53:12.251Z,35.27
2023-05-19T15:55:46.794Z,34.82
2023-05-19T15:58:19.915Z,34.75
2023-05-19T16:00:53.165Z,34.56
2023-05-19T16:03:26.497Z,34.82
2023-05-19T16:05:59.755Z,34.98
2023-05-19T16:08:33.209Z,34.98
2023-05-19T16:11:07.895Z,35.78
2023-05-19T16:13:41.095Z,36.75
2023-05-19T16:16:14.296Z,35.75
2023-05-19T16:18:48.289Z,35.31
2023-05-19T16:21:22.145Z,35.06
2023-05-19T16:23:55.298Z,34.87
2023-05-19T16:26:30.260Z,34.70
2023-05-19T16:29:03.416Z,35.51
2023-05-19T16:31:36.633Z,35.64
2023-05-19T16:34:09.840Z,35.13
2023-05-19T16:36:43.133Z,35.78
2023-05-19T16:39:16.469Z,35.95
2023-05-19T16:41:51.124Z,36.53
2023-05-19T16:44:24.648Z,35.82
2023-05-19T16:46:57.895Z,36.45
2023-05-19T16:49:31.069Z,36.05
2023-05-19T16:52:04.599Z,36.99
2023-05-19T16:54:38.135Z,36.94
2023-05-19T16:57:14.739Z,37.05
2023-05-19T16:59:49.600Z,36.08
2023-05-19T17:02:22.919Z,35.88
2023-05-19T17:04:56.432Z,36.15
2023-05-19T17:07:30.159Z,36.43
2023-05-19T17:10:03.300Z,35.78
2023-05-19T17:12:37.857Z,36.48
2023-05-19T17:15:11.877Z,36.65
2023-05-19T17:17:45.059Z,37.47
2023-05-19T17:20:18.274Z,37.92
2023-05-19T17:22:51.704Z,37.32
2023-05-19T17:25:24.988Z,37.12
2023-05-19T17:27:59.634Z,36.86
2023-05-19T17:30:33.062Z,37.19
2023-05-19T17:33:06.514Z,37.34
2023-05-19T17:35:41.184Z,36.64
2023-05-19T17:38:14.434Z,37.47
2023-05-19T17:40:47.534Z,37.19
2023-05-19T17:43:22.018Z,36.93
2023-05-19T17:45:55.718Z,36.99
2023-05-19T17:48:28.894Z,36.51
2023-05-19T17:51:03.887Z,37.05
2023-05-19T17:53:38.907Z,36.86
2023-05-19T17:56:15.538Z,36.60
2023-05-19T17:58:50.935Z,36.56
2023-05-19T18:01:25.808Z,37.19
2023-05-19T18:03:59.772Z,37.34
2023-05-19T18:06:33.424Z,37.35
2023-05-19T18:09:09.154Z,37.53
2023-05-19T18:11:44.765Z,38.03
2023-05-19T18:14:19.403Z,38.20
2023-05-19T18:16:52.636Z,38.25
2023-05-19T18:19:26.047Z,38.98
2023-05-19T18:21:59.184Z,39.34
2023-05-19T18:24:32.371Z,39.52
2023-05-19T18:27:05.906Z,39.72
2023-05-19T18:29:40.454Z,39.39
2023-05-19T18:32:14.618Z,39.72
2023-05-19T18:34:47.937Z,40.81
2023-05-19T18:37:21.201Z,40.36
2023-05-19T18:39:54.324Z,40.61
2023-05-19T18:42:27.663Z,40.93
2023-05-19T18:45:02.161Z,41.39
2023-05-19T18:47:35.308Z,41.53
2023-05-19T18:50:10.925Z,41.67
2023-05-19T18:52:44.089Z,42.10
2023-05-19T18:55:17.363Z,42.39
2023-05-19T18:57:51.429Z,42.66
2023-05-19T19:00:28.041Z,43.04
2023-05-19T19:03:01.792Z,43.18
2023-05-19T19:05:35.050Z,43.40
2023-05-19T19:08:08.271Z,43.62
2023-05-19T19:10:41.506Z,43.75
2023-05-19T19:13:14.655Z,44.33
2023-05-19T19:15:49.171Z,44.31
2023-05-19T19:18:22.452Z,44.38
2023-05-19T19:20:57.320Z,44.21
2023-05-19T19:23:30.475Z,44.86
2023-05-19T19:26:03.651Z,44.85
2023-05-19T19:28:37.054Z,45.18
2023-05-19T19:31:11.608Z,45.67
2023-05-19T19:33:45.040Z,45.76
2023-05-19T19:36:18.228Z,45.74
2023-05-19T19:38:51.455Z,46.10
2023-05-19T19:41:25.373Z,46.28
2023-05-19T19:43:58.456Z,46.19
2023-05-19T19:46:32.994Z,46.39
2023-05-19T19:49:06.309Z,47.01
2023-05-19T19:51:39.442Z,47.23
2023-05-19T19:54:12.584Z,49.02
2023-05-19T19:56:45.999Z,48.20
2023-05-19T19:59:19.172Z,48.41
2023-05-19T20:01:53.759Z,48.45
2023-05-19T20:04:27.868Z,48.96
2023-05-19T20:07:01.461Z,50.55
2023-05-19T20:09:34.600Z,50.08
2023-05-19T20:12:08.418Z,49.76
2023-05-19T20:14:41.562Z,49.77
2023-05-19T20:17:16.145Z,50.26
2023-05-19T20:19:49.281Z,50.61
2023-05-19T20:22:22.448Z,50.49
2023-05-19T20:24:55.612Z,50.78
2023-05-19T20:27:28.786Z,50.64
2023-05-19T20:30:02.024Z,51.53
2023-05-19T20:32:36.649Z,51.31
2023-05-19T20:35:10.266Z,51.33
2023-05-19T20:37:43.481Z,51.53
2023-05-19T20:40:16.808Z,51.40
2023-05-19T20:42:50.116Z,52.08
2023-05-19T20:45:23.355Z,52.42
2023-05-19T20:47:59.414Z,51.88
2023-05-19T20:50:32.994Z,51.84
2023-05-19T20:53:07.367Z,52.27
2023-05-19T20:55:41.278Z,52.11
2023-05-19T20:58:14.951Z,52.54
2023-05-19T21:00:48.747Z,52.01
2023-05-19T21:03:23.704Z,52.89
2023-05-19T21:05:57.606Z,52.58
2023-05-19T21:08:30.926Z,52.66
2023-05-19T21:11:04.116Z,52.87
2023-05-19T21:13:39.133Z,52.56
2023-05-19T21:16:12.384Z,53.05
2023-05-19T21:18:46.997Z,53.18
2023-05-19T21:21:20.273Z,52.87
2023-05-19T21:23:53.567Z,52.95
2023-05-19T21:26:27.444Z,53.01
2023-05-19T21:29:00.820Z,52.88
2023-05-19T21:31:35.295Z,53.27
2023-05-19T21:34:09.853Z,53.45
2023-05-19T21:36:42.947Z,53.46
2023-05-19T21:39:16.496Z,53.77
2023-05-19T21:41:51.293Z,54.03
2023-05-19T21:44:25.254Z,53.77
2023-05-19T21:46:58.618Z,53.76
2023-05-19T21:49:33.252Z,53.80
2023-05-19T21:52:09.473Z,53.89
2023-05-19T21:54:42.706Z,53.88
2023-05-19T21:57:15.920Z,54.06
2023-05-19T21:59:49.066Z,53.56
2023-05-19T22:02:22.296Z,54.06
2023-05-19T22:04:57.332Z,53.86
2023-05-19T22:07:30.585Z,54.21
2023-05-19T22:10:03.888Z,54.05
2023-05-19T22:12:39.557Z,54.15
2023-05-19T22:15:13.575Z,54.30
2023-05-19T22:17:47.155Z,54.28
2023-05-19T22:20:21.796Z,54.36
2023-05-19T22:22:55.061Z,54.49
2023-05-19T22:25:28.307Z,54.96
2023-05-19T22:28:02.254Z,54.96
2023-05-19T22:30:38.431Z,55.34
2023-05-19T22:33:13.374Z,55.45
2023-05-19T22:35:48.249Z,55.31
2023-05-19T22:38:21.510Z,55.64
2023-05-19T22:40:54.895Z,56.13
2023-05-19T22:43:28.086Z,56.10
2023-05-19T22:46:01.431Z,55.76
2023-05-19T22:48:34.635Z,55.89
2023-05-19T22:51:09.513Z,55.99
2023-05-19T22:53:44.671Z,56.34
2023-05-19T22:56:17.932Z,57.40
2023-05-19T22:58:51.077Z,57.48
2023-05-19T23:01:24.353Z,57.87
2023-05-19T23:03:57.581Z,57.69
2023-05-19T23:06:32.341Z,57.79
2023-05-19T23:09:06.149Z,58.21
2023-05-19T23:11:39.382Z,58.75
2023-05-19T23:14:12.564Z,58.52
2023-05-19T23:16:46.193Z,58.93
2023-05-19T23:19:20.397Z,58.41
2023-05-19T23:21:55.065Z,58.50
2023-05-19T23:24:28.258Z,58.78
2023-05-19T23:27:01.569Z,58.52
2023-05-19T23:29:37.165Z,58.57
2023-05-19T23:32:10.402Z,59.05
2023-05-19T23:34:43.706Z,59.12
2023-05-19T23:37:21.290Z,59.04
2023-05-19T23:39:54.511Z,59.44
2023-05-19T23:42:27.751Z,59.10
2023-05-19T23:45:03.621Z,59.53
2023-05-19T23:47:36.878Z,59.34
2023-05-19T23:50:12.498Z,60.87
2023-05-19T23:52:47.105Z,61.73
2023-05-19T23:55:20.419Z,62.21
2023-05-19T23:57:53.597Z,63.09
